.
WxDataArchive / Data Records for 2014-11-15
2014-11-14 November 2014 2014-11-16

Data Records for Saturday, 15 November 2014

Time	Temp	Chill	HIndex	Humid	Dewpt	 Wind 	HiWind	WindDir	Rain 	Barom
-----	----	-----	------	-----	-----	------	------	-------	-----	-----
00:00	24.1	24.1	24.1	71	16.1	0	1	248	0.00	30.377 
00:05	23.9	23.9	23.9	71	15.9	0	1	248	0.00	30.377 
00:10	23.8	23.8	23.8	71	15.8	0	1	248	0.00	30.377 
00:15	23.6	23.6	23.6	71	15.6	0	2	248	0.00	30.380 
00:20	23.5	23.5	23.5	72	15.8	0	1	248	0.00	30.380 
00:25	23.2	23.2	23.2	72	15.5	0	1	248	0.00	30.380 
00:30	23.2	23.2	23.2	72	15.5	0	1	248	0.00	30.380 
00:35	23.0	23.0	23.0	72	15.3	0	2	248	0.00	30.380 
00:40	22.9	22.9	22.9	72	15.2	0	1	248	0.00	30.380 
00:45	22.7	22.7	22.7	73	15.4	0	1	248	0.00	30.381 
00:50	22.5	22.5	22.5	73	15.2	0	1	248	0.00	30.381 
00:55	22.4	22.4	22.4	73	15.1	0	1	248	0.00	30.381 
01:00	22.4	22.4	22.4	73	15.1	0	1	248	0.00	30.381 
01:05	22.2	22.2	22.2	73	14.9	0	0	---	0.00	30.381 
01:10	22.1	22.1	22.1	73	14.8	0	0	---	0.00	30.381 
01:15	21.9	21.9	21.9	74	14.9	0	0	---	0.00	30.379 
01:20	21.8	21.8	21.8	74	14.8	0	0	---	0.00	30.379 
01:25	21.8	21.8	21.8	74	14.8	0	0	---	0.00	30.379 
01:30	21.6	21.6	21.6	74	14.6	0	0	---	0.00	30.378 
01:35	21.4	21.4	21.4	75	14.7	0	0	---	0.00	30.378 
01:40	21.4	21.4	21.4	75	14.7	0	0	---	0.00	30.378 
01:45	21.3	21.3	21.3	75	14.6	0	0	---	0.00	30.377 
01:50	21.1	21.1	21.1	75	14.4	0	0	---	0.00	30.377 
01:55	21.0	21.0	21.0	76	14.6	0	0	---	0.00	30.377 
02:00	21.0	21.0	21.0	76	14.6	0	0	---	0.00	30.379 
02:05	20.8	20.8	20.8	76	14.5	0	0	---	0.00	30.379 
02:10	20.8	20.8	20.8	76	14.5	0	0	---	0.00	30.379 
02:15	20.6	20.6	20.6	77	14.6	0	0	---	0.00	30.380 
02:20	20.6	20.6	20.6	77	14.6	0	0	---	0.00	30.380 
02:25	20.5	20.5	20.5	77	14.5	0	0	---	0.00	30.380 
02:30	20.5	20.5	20.5	77	14.5	0	0	---	0.00	30.379 
02:35	20.3	20.3	20.3	77	14.3	0	0	---	0.00	30.379 
02:40	20.3	20.3	20.3	77	14.3	0	0	---	0.00	30.379 
02:45	20.2	20.2	20.2	77	14.2	0	0	---	0.00	30.380 
02:50	20.0	20.0	20.0	78	14.3	0	0	---	0.00	30.380 
02:55	19.9	19.9	19.9	78	14.2	0	0	---	0.00	30.380 
03:00	19.9	19.9	19.9	78	14.2	0	0	---	0.00	30.384 
03:05	19.7	19.7	19.7	79	14.3	0	0	---	0.00	30.384 
03:10	19.7	19.7	19.7	79	14.3	0	0	---	0.00	30.384 
03:15	19.7	19.7	19.7	79	14.3	0	0	---	0.00	30.386 
03:20	19.7	19.7	19.7	79	14.3	0	0	---	0.00	30.386 
03:25	19.7	19.7	19.7	79	14.3	0	0	---	0.00	30.386 
03:30	19.5	19.5	19.5	79	14.1	0	0	---	0.00	30.386 
03:35	19.5	19.5	19.5	79	14.1	0	0	---	0.00	30.386 
03:40	19.4	19.4	19.4	80	14.3	0	0	---	0.00	30.386 
03:45	19.4	19.4	19.4	80	14.3	0	0	---	0.00	30.391 
03:50	19.4	19.4	19.4	80	14.3	0	0	---	0.00	30.391 
03:55	19.4	19.4	19.4	80	14.3	0	0	---	0.00	30.391 
04:00	19.4	19.4	19.4	80	14.3	0	0	---	0.00	30.389 
04:05	19.2	19.2	19.2	80	14.1	0	0	---	0.00	30.389 
04:10	19.2	19.2	19.2	80	14.1	0	0	---	0.00	30.389 
04:15	19.2	19.2	19.2	80	14.1	0	0	---	0.00	30.389 
04:20	19.1	19.1	19.1	80	14.0	0	0	---	0.00	30.389 
04:25	19.1	19.1	19.1	80	14.0	0	0	---	0.00	30.389 
04:30	18.9	18.9	18.9	80	13.8	0	0	---	0.00	30.388 
04:35	18.9	18.9	18.9	80	13.8	0	0	---	0.00	30.388 
04:40	19.1	19.1	19.1	80	14.0	0	0	---	0.00	30.388 
04:45	19.1	19.1	19.1	81	14.2	0	0	---	0.00	30.392 
04:50	19.2	19.2	19.2	81	14.3	0	0	---	0.00	30.392 
04:55	19.4	19.4	19.4	81	14.5	0	0	---	0.00	30.392 
05:00	19.4	19.4	19.4	81	14.5	0	0	---	0.00	30.399 
05:05	19.5	19.5	19.5	81	14.6	0	0	---	0.00	30.399 
05:10	19.5	19.5	19.5	81	14.6	0	0	---	0.00	30.399 
05:15	19.5	19.5	19.5	81	14.6	0	0	---	0.00	30.400 
05:20	19.7	19.7	19.7	81	14.8	0	0	---	0.00	30.400 
05:25	19.7	19.7	19.7	81	14.8	0	0	---	0.00	30.400 
05:30	19.5	19.5	19.5	81	14.6	0	0	---	0.00	30.398 
05:35	19.5	19.5	19.5	81	14.6	0	0	---	0.00	30.398 
05:40	19.5	19.5	19.5	81	14.6	0	0	---	0.00	30.398 
05:45	19.4	19.4	19.4	81	14.5	0	0	---	0.00	30.396 
05:50	19.2	19.2	19.2	81	14.3	0	0	---	0.00	30.396 
05:55	19.1	19.1	19.1	81	14.2	0	0	---	0.00	30.396 
06:00	18.9	18.9	18.9	81	14.1	0	0	---	0.00	30.399 
06:05	18.8	18.8	18.8	81	14.0	0	0	---	0.00	30.399 
06:10	18.6	18.6	18.6	81	13.8	0	0	---	0.00	30.399 
06:15	18.4	18.4	18.4	81	13.6	0	0	---	0.00	30.402 
06:20	18.1	18.1	18.1	81	13.3	0	0	---	0.00	30.402 
06:25	18.0	18.0	18.0	81	13.2	0	0	---	0.00	30.402 
06:30	17.8	17.8	17.8	81	13.0	0	0	---	0.00	30.402 
06:35	17.7	17.7	17.7	81	12.9	0	0	---	0.00	30.402 
06:40	17.5	17.5	17.5	81	12.7	0	0	---	0.00	30.402 
06:45	17.3	17.3	17.3	81	12.5	0	0	---	0.00	30.405 
06:50	17.2	17.2	17.2	82	12.7	0	0	---	0.00	30.405 
06:55	17.0	17.0	17.0	82	12.5	0	0	---	0.00	30.405 
07:00	16.7	16.7	16.7	83	12.5	0	0	---	0.00	30.401 
07:05	16.5	16.5	16.5	83	12.3	0	0	---	0.00	30.401 
07:10	16.4	16.4	16.4	83	12.2	0	0	---	0.00	30.401 
07:15	16.2	16.2	16.2	83	12.0	0	0	---	0.00	30.412 
07:20	16.2	16.2	16.2	83	12.0	0	0	---	0.00	30.412 
07:25	16.1	16.1	16.1	83	11.9	0	0	---	0.00	30.412 
07:30	15.9	15.9	15.9	83	11.7	0	0	---	0.00	30.411 
07:35	15.9	15.9	15.9	83	11.7	0	0	---	0.00	30.411 
07:40	15.7	15.7	15.7	84	11.7	0	0	---	0.00	30.411 
07:45	15.7	15.7	15.7	84	11.7	0	0	---	0.00	30.416 
07:50	15.6	15.6	15.6	84	11.6	0	0	---	0.00	30.416 
07:55	15.6	15.6	15.6	84	11.6	0	0	---	0.00	30.416 
08:00	15.6	15.6	15.6	84	11.6	0	0	---	0.00	30.420 
08:05	15.9	15.9	15.9	85	12.2	0	0	---	0.00	30.420 
08:10	16.2	16.2	16.2	85	12.5	0	0	---	0.00	30.420 
08:15	16.9	16.9	16.9	86	13.5	0	1	248	0.00	30.424 
08:20	17.7	17.7	17.7	86	14.2	0	1	248	0.00	30.424 
08:25	18.3	18.3	18.3	86	14.8	0	1	248	0.00	30.424 
08:30	18.8	18.8	18.8	85	15.1	0	1	248	0.00	30.436 
08:35	19.2	19.2	19.2	85	15.4	0	1	248	0.00	30.436 
08:40	19.7	19.7	19.7	84	15.7	0	1	248	0.00	30.436 
08:45	20.0	20.0	20.0	83	15.7	0	1	248	0.00	30.432 
08:50	20.5	20.5	20.5	81	15.6	0	3	248	0.00	30.432 
08:55	20.8	20.8	20.8	80	15.6	0	1	248	0.00	30.432 
09:00	21.3	21.3	21.3	79	15.8	0	1	248	0.00	30.437 
09:05	21.8	21.8	21.8	78	16.0	0	1	248	0.00	30.437 
09:10	22.2	22.2	22.2	76	15.8	0	2	248	0.00	30.437 
09:15	22.7	22.7	22.7	75	16.0	0	1	248	0.00	30.443 
09:20	23.2	23.2	23.2	75	16.5	0	1	248	0.00	30.443 
09:25	23.8	23.8	23.8	73	16.4	0	1	248	0.00	30.443 
09:30	24.2	24.2	24.2	72	16.5	0	1	248	0.00	30.437 
09:35	24.4	24.4	24.4	69	15.7	0	2	248	0.00	30.437 
09:40	24.7	24.7	24.7	68	15.7	0	3	248	0.00	30.437 
09:45	25.0	25.0	25.0	68	16.0	0	2	248	0.00	30.439 
09:50	25.3	25.3	25.3	66	15.6	0	2	248	0.00	30.439 
09:55	25.4	25.4	25.4	65	15.3	0	1	248	0.00	30.439 
10:00	25.7	25.7	25.7	64	15.2	1	3	248	0.00	30.431 
10:05	25.8	25.8	25.8	63	15.0	1	3	248	0.00	30.431 
10:10	26.0	26.0	26.0	63	15.2	0	3	248	0.00	30.431 
10:15	26.1	26.1	26.1	63	15.3	0	2	248	0.00	30.427 
10:20	26.6	26.6	26.6	63	15.7	0	1	248	0.00	30.427 
10:25	26.7	26.7	26.7	62	15.5	0	2	248	0.00	30.427 
10:30	27.0	27.0	27.0	61	15.4	0	3	248	0.00	30.428 
10:35	27.2	27.2	27.2	61	15.6	0	2	248	0.00	30.428 
10:40	27.3	27.3	27.3	60	15.3	0	2	248	0.00	30.428 
10:45	27.5	27.5	27.5	60	15.5	1	4	248	0.00	30.425 
10:50	27.6	27.6	27.6	59	15.2	1	3	248	0.00	30.425 
10:55	27.8	27.8	27.8	59	15.4	0	2	248	0.00	30.425 
11:00	27.8	27.8	27.8	59	15.4	0	3	248	0.00	30.423 
11:05	27.9	27.9	27.9	60	15.8	0	2	248	0.00	30.423 
11:10	28.2	28.2	28.2	58	15.3	0	2	248	0.00	30.423 
11:15	28.5	28.5	28.5	59	16.0	0	2	248	0.00	30.422 
11:20	28.7	28.7	28.7	58	15.8	0	3	248	0.00	30.422 
11:25	28.8	28.8	28.8	58	15.9	1	3	248	0.00	30.422 
11:30	29.0	29.0	29.0	57	15.7	1	4	248	0.00	30.418 
11:35	28.8	28.8	28.8	56	15.1	1	5	248	0.00	30.418 
11:40	28.8	28.8	28.8	58	15.9	0	3	248	0.00	30.418 
11:45	28.8	28.8	28.8	57	15.5	0	3	248	0.00	30.402 
11:50	29.1	29.1	29.1	59	16.6	0	3	248	0.00	30.402 
11:55	29.7	29.7	29.7	58	16.8	0	2	270	0.00	30.402 
12:00	30.1	30.1	30.1	57	16.7	0	1	270	0.00	30.394 
12:05	30.3	30.3	30.3	55	16.1	1	4	270	0.00	30.394 
12:10	30.4	30.4	30.4	54	15.8	0	2	248	0.00	30.394 
12:15	30.3	30.3	30.3	54	15.7	0	3	248	0.00	30.385 
12:20	30.6	30.6	30.6	55	16.4	1	3	248	0.00	30.385 
12:25	30.6	30.6	30.6	54	16.0	0	3	248	0.00	30.385 
12:30	30.7	30.7	30.7	55	16.5	0	1	248	0.00	30.382 
12:35	30.6	30.6	30.6	53	15.5	1	3	248	0.00	30.382 
12:40	30.6	30.6	30.6	54	16.0	0	1	248	0.00	30.382 
12:45	30.7	30.7	30.7	54	16.0	0	2	248	0.00	30.371 
12:50	31.0	31.0	31.0	54	16.3	0	2	248	0.00	30.371 
12:55	31.2	31.2	31.2	52	15.6	1	3	248	0.00	30.371 
13:00	31.0	31.0	31.0	54	16.3	0	2	248	0.00	30.367 
13:05	31.0	31.0	31.0	52	15.5	1	4	248	0.00	30.367 
13:10	31.2	31.2	31.2	53	16.1	0	2	248	0.00	30.367 
13:15	31.5	31.5	31.5	51	15.5	1	3	248	0.00	30.363 
13:20	31.5	31.5	31.5	50	15.0	0	4	248	0.00	30.363 
13:25	31.5	31.5	31.5	51	15.5	0	1	248	0.00	30.363 
13:30	31.8	31.8	31.8	51	15.8	0	3	248	0.00	30.353 
13:35	32.1	32.1	32.1	51	16.0	0	1	248	0.00	30.353 
13:40	32.1	32.1	32.1	50	15.6	0	2	248	0.00	30.353 
13:45	32.1	32.1	32.1	50	15.6	0	1	22	0.00	30.345 
13:50	32.2	32.2	32.2	50	15.7	0	1	22	0.00	30.345 
13:55	32.4	32.4	32.4	51	16.3	0	1	22	0.00	30.345 
14:00	32.5	32.5	32.5	50	16.0	0	2	292	0.00	30.340 
14:05	32.5	32.5	32.5	50	16.0	0	3	270	0.00	30.340 
14:10	32.4	32.4	32.4	50	15.9	0	2	292	0.00	30.340 
14:15	32.2	32.2	32.2	51	16.1	0	2	292	0.00	30.334 
14:20	32.1	32.1	32.1	50	15.6	0	3	292	0.00	30.334 
14:25	32.2	32.2	32.2	49	15.2	0	1	292	0.00	30.334 
14:30	32.4	32.4	32.4	49	15.4	0	2	22	0.00	30.327 
14:35	32.5	32.5	32.5	49	15.5	0	2	248	0.00	30.327 
14:40	32.7	32.7	32.7	49	15.7	0	1	248	0.00	30.327 
14:45	32.7	32.7	32.7	48	15.2	0	2	248	0.00	30.324 
14:50	32.8	32.8	32.8	49	15.8	0	2	248	0.00	30.324 
14:55	32.8	32.8	32.8	50	16.2	0	3	248	0.00	30.324 
15:00	32.8	32.8	32.8	49	15.8	0	3	248	0.00	30.320 
15:05	32.5	32.5	32.5	49	15.5	1	2	248	0.00	30.320 
15:10	32.5	32.5	32.5	50	16.0	0	3	248	0.00	30.320 
15:15	32.7	32.7	32.7	50	16.1	0	1	248	0.00	30.317 
15:20	32.8	32.8	32.8	50	16.2	0	1	248	0.00	30.317 
15:25	32.8	32.8	32.8	50	16.2	0	1	248	0.00	30.317 
15:30	32.9	32.9	32.9	50	16.3	0	1	248	0.00	30.306 
15:35	32.9	32.9	32.9	50	16.3	0	1	248	0.00	30.306 
15:40	32.9	32.9	32.9	50	16.3	0	2	248	0.00	30.306 
15:45	32.9	32.9	32.9	51	16.8	0	1	248	0.00	30.303 
15:50	32.9	32.9	32.9	50	16.3	0	1	248	0.00	30.303 
15:55	32.8	32.8	32.8	49	15.8	0	2	248	0.00	30.303 
16:00	32.7	32.7	32.7	50	16.1	0	2	248	0.00	30.304 
16:05	32.5	32.5	32.5	50	16.0	0	1	248	0.00	30.304 
16:10	32.5	32.5	32.5	50	16.0	0	1	248	0.00	30.304 
16:15	32.4	32.4	32.4	49	15.4	0	1	248	0.00	30.305 
16:20	32.2	32.2	32.2	50	15.7	0	1	248	0.00	30.305 
16:25	32.2	32.2	32.2	51	16.1	0	2	248	0.00	30.305 
16:30	32.1	32.1	32.1	50	15.6	0	1	248	0.00	30.305 
16:35	32.1	32.1	32.1	50	15.6	0	1	248	0.00	30.305 
16:40	32.2	32.2	32.2	51	16.1	0	1	248	0.00	30.305 
16:45	32.2	32.2	32.2	51	16.1	0	1	248	0.00	30.298 
16:50	32.2	32.2	32.2	50	15.7	0	0	---	0.00	30.298 
16:55	32.2	32.2	32.2	51	16.1	0	1	248	0.00	30.298 
17:00	32.1	32.1	32.1	52	16.5	0	2	248	0.00	30.292 
17:05	31.9	31.9	31.9	51	15.9	0	2	248	0.00	30.292 
17:10	31.6	31.6	31.6	52	16.0	0	0	---	0.00	30.292 
17:15	31.5	31.5	31.5	52	15.9	0	1	248	0.00	30.291 
17:20	31.3	31.3	31.3	53	16.2	0	0	---	0.00	30.291 
17:25	31.0	31.0	31.0	54	16.3	0	0	---	0.00	30.291 
17:30	30.9	30.9	30.9	54	16.2	0	0	---	0.00	30.290 
17:35	30.7	30.7	30.7	54	16.0	0	0	---	0.00	30.290 
17:40	30.6	30.6	30.6	55	16.4	0	0	---	0.00	30.290 
17:45	30.4	30.4	30.4	56	16.6	0	0	---	0.00	30.287 
17:50	30.3	30.3	30.3	56	16.5	0	0	---	0.00	30.287 
17:55	30.1	30.1	30.1	56	16.3	0	0	---	0.00	30.287 
18:00	30.1	30.1	30.1	56	16.3	0	0	---	0.00	30.285 
18:05	30.0	30.0	30.0	56	16.2	0	0	---	0.00	30.285 
18:10	29.8	29.8	29.8	57	16.4	0	0	---	0.00	30.285 
18:15	29.7	29.7	29.7	57	16.4	0	0	---	0.00	30.282 
18:20	29.5	29.5	29.5	58	16.6	0	0	---	0.00	30.282 
18:25	29.4	29.4	29.4	58	16.5	0	0	---	0.00	30.282 
18:30	29.4	29.4	29.4	58	16.5	0	0	---	0.00	30.291 
18:35	29.3	29.3	29.3	58	16.4	0	0	---	0.00	30.291 
18:40	29.3	29.3	29.3	59	16.8	0	0	---	0.00	30.291 
18:45	29.3	29.3	29.3	59	16.8	0	0	---	0.00	30.296 
18:50	29.3	29.3	29.3	60	17.2	0	0	---	0.00	30.296 
18:55	29.1	29.1	29.1	60	17.0	0	0	---	0.00	30.296 
19:00	29.1	29.1	29.1	60	17.0	0	0	---	0.00	30.293 
19:05	29.0	29.0	29.0	60	16.9	0	0	---	0.00	30.293 
19:10	29.0	29.0	29.0	61	17.3	0	0	---	0.00	30.293 
19:15	29.0	29.0	29.0	61	17.3	0	0	---	0.00	30.286 
19:20	28.8	28.8	28.8	61	17.1	0	0	---	0.00	30.286 
19:25	28.8	28.8	28.8	62	17.4	0	0	---	0.00	30.286 
19:30	28.8	28.8	28.8	62	17.4	0	0	---	0.00	30.293 
19:35	28.7	28.7	28.7	62	17.4	0	0	---	0.00	30.293 
19:40	28.7	28.7	28.7	62	17.4	0	0	---	0.00	30.293 
19:45	28.7	28.7	28.7	62	17.4	0	0	---	0.00	30.294 
19:50	28.7	28.7	28.7	62	17.4	0	0	---	0.00	30.294 
19:55	28.5	28.5	28.5	62	17.2	0	0	---	0.00	30.294 
20:00	28.5	28.5	28.5	62	17.2	0	0	---	0.00	30.286 
20:05	28.5	28.5	28.5	63	17.5	0	0	---	0.00	30.286 
20:10	28.4	28.4	28.4	63	17.4	0	0	---	0.00	30.286 
20:15	28.5	28.5	28.5	63	17.5	0	0	---	0.00	30.274 
20:20	28.5	28.5	28.5	63	17.5	0	0	---	0.00	30.274 
20:25	28.5	28.5	28.5	63	17.5	0	0	---	0.00	30.274 
20:30	28.5	28.5	28.5	63	17.5	0	0	---	0.00	30.276 
20:35	28.7	28.7	28.7	63	17.7	0	0	---	0.00	30.276 
20:40	28.7	28.7	28.7	63	17.7	0	0	---	0.00	30.276 
20:45	28.8	28.8	28.8	63	17.8	0	0	---	0.00	30.274 
20:50	28.8	28.8	28.8	64	18.2	0	0	---	0.00	30.274 
20:55	28.8	28.8	28.8	63	17.8	0	0	---	0.00	30.274 
21:00	28.8	28.8	28.8	64	18.2	0	0	---	0.00	30.277 
21:05	28.8	28.8	28.8	64	18.2	0	0	---	0.00	30.277 
21:10	28.8	28.8	28.8	64	18.2	0	0	---	0.00	30.277 
21:15	28.8	28.8	28.8	64	18.2	0	0	---	0.00	30.271 
21:20	29.0	29.0	29.0	64	18.4	0	0	---	0.00	30.271 
21:25	28.8	28.8	28.8	64	18.2	0	0	---	0.00	30.271 
21:30	28.8	28.8	28.8	63	17.8	0	0	---	0.00	30.268 
21:35	28.8	28.8	28.8	64	18.2	0	0	---	0.00	30.268 
21:40	29.0	29.0	29.0	64	18.4	0	0	---	0.00	30.268 
21:45	29.0	29.0	29.0	63	18.0	0	0	---	0.00	30.254 
21:50	29.0	29.0	29.0	64	18.4	0	0	---	0.00	30.254 
21:55	29.0	29.0	29.0	64	18.4	0	0	---	0.00	30.254 
22:00	29.0	29.0	29.0	64	18.4	0	0	---	0.00	30.246 
22:05	29.1	29.1	29.1	64	18.5	0	0	---	0.00	30.246 
22:10	29.1	29.1	29.1	64	18.5	0	0	---	0.00	30.246 
22:15	29.1	29.1	29.1	64	18.5	0	0	---	0.00	30.248 
22:20	29.1	29.1	29.1	64	18.5	0	0	---	0.00	30.248 
22:25	29.1	29.1	29.1	64	18.5	0	0	---	0.00	30.248 
22:30	29.3	29.3	29.3	64	18.7	0	0	---	0.00	30.260 
22:35	29.3	29.3	29.3	65	19.0	0	0	---	0.00	30.260 
22:40	29.3	29.3	29.3	65	19.0	0	0	---	0.00	30.260 
22:45	29.3	29.3	29.3	64	18.7	0	0	---	0.00	30.250 
22:50	29.3	29.3	29.3	64	18.7	0	0	---	0.00	30.250 
22:55	29.3	29.3	29.3	64	18.7	0	0	---	0.00	30.250 
23:00	29.3	29.3	29.3	63	18.3	0	0	---	0.00	30.238 
23:05	29.3	29.3	29.3	64	18.7	0	0	---	0.00	30.238 
23:10	29.3	29.3	29.3	64	18.7	0	0	---	0.00	30.238 
23:15	29.4	29.4	29.4	64	18.8	0	0	---	0.00	30.237 
23:20	29.4	29.4	29.4	65	19.1	0	0	---	0.00	30.237 
23:25	29.4	29.4	29.4	65	19.1	0	0	---	0.00	30.237 
23:30	29.4	29.4	29.4	65	19.1	0	0	---	0.00	30.250 
23:35	29.4	29.4	29.4	65	19.1	0	0	---	0.00	30.250 
23:40	29.4	29.4	29.4	65	19.1	0	0	---	0.00	30.250 
23:45	29.4	29.4	29.4	65	19.1	0	0	---	0.00	30.248 
23:50	29.4	29.4	29.4	64	18.8	0	0	---	0.00	30.248 
23:55	29.4	29.4	29.4	64	18.8	0	0	---	0.00	30.248 

CoCoRaHS
IN-AL-39
A2 Web Hosting
Creative Commons License
GoDaddy
search engine by freefind advanced

loaded 2018-11-13 21:55:44 • last modified 2010-11-18 10:43:29
Privacy PolicyDisclaimer
• wx.awcolley.com is powered by PmWiki v.2002016 •
• all content (unless otherwise noted) © 2018 A W Colley